sensor_id;sensor_type;location;lat;lon;timestamp;P1;durP1;ratioP1;P2;durP2;ratioP2
41952;SDS011;63613;28.200;112.870;2024-03-02T00:01:56;35.92;;;25.92;;
41952;SDS011;63613;28.200;112.870;2024-03-02T00:04:25;34.80;;;24.58;;
41952;SDS011;63613;28.200;112.870;2024-03-02T00:06:54;34.42;;;23.63;;
41952;SDS011;63613;28.200;112.870;2024-03-02T00:09:23;35.00;;;24.80;;
41952;SDS011;63613;28.200;112.870;2024-03-02T00:11:53;35.10;;;24.35;;
41952;SDS011;63613;28.200;112.870;2024-03-02T00:14:22;34.08;;;24.98;;
41952;SDS011;63613;28.200;112.870;2024-03-02T00:16:51;34.60;;;24.85;;
41952;SDS011;63613;28.200;112.870;2024-03-02T00:19:22;33.88;;;24.27;;
41952;SDS011;63613;28.200;112.870;2024-03-02T00:21:51;36.08;;;24.08;;
41952;SDS011;63613;28.200;112.870;2024-03-02T00:24:21;35.65;;;25.35;;
41952;SDS011;63613;28.200;112.870;2024-03-02T00:26:59;34.72;;;24.70;;
41952;SDS011;63613;28.200;112.870;2024-03-02T00:29:30;33.75;;;23.77;;
41952;SDS011;63613;28.200;112.870;2024-03-02T00:31:59;34.25;;;24.38;;
41952;SDS011;63613;28.200;112.870;2024-03-02T00:34:30;33.63;;;23.33;;
41952;SDS011;63613;28.200;112.870;2024-03-02T00:36:59;32.95;;;23.48;;
41952;SDS011;63613;28.200;112.870;2024-03-02T00:39:28;33.15;;;23.45;;
41952;SDS011;63613;28.200;112.870;2024-03-02T00:41:58;33.35;;;24.02;;
41952;SDS011;63613;28.200;112.870;2024-03-02T00:44:27;33.58;;;23.73;;
41952;SDS011;63613;28.200;112.870;2024-03-02T00:47:03;36.03;;;24.38;;
41952;SDS011;63613;28.200;112.870;2024-03-02T00:49:32;34.42;;;25.10;;
41952;SDS011;63613;28.200;112.870;2024-03-02T00:52:01;33.85;;;23.58;;
41952;SDS011;63613;28.200;112.870;2024-03-02T00:54:29;31.05;;;22.95;;
41952;SDS011;63613;28.200;112.870;2024-03-02T00:56:58;32.63;;;23.77;;
41952;SDS011;63613;28.200;112.870;2024-03-02T00:59:28;33.60;;;23.80;;
41952;SDS011;63613;28.200;112.870;2024-03-02T01:01:57;36.38;;;24.27;;
41952;SDS011;63613;28.200;112.870;2024-03-02T01:04:27;32.83;;;22.98;;
41952;SDS011;63613;28.200;112.870;2024-03-02T01:06:56;32.30;;;22.77;;
41952;SDS011;63613;28.200;112.870;2024-03-02T01:09:25;36.58;;;25.98;;
41952;SDS011;63613;28.200;112.870;2024-03-02T01:11:55;33.90;;;24.10;;
41952;SDS011;63613;28.200;112.870;2024-03-02T01:14:24;35.22;;;24.55;;
41952;SDS011;63613;28.200;112.870;2024-03-02T01:16:53;34.60;;;24.10;;
41952;SDS011;63613;28.200;112.870;2024-03-02T01:19:22;35.08;;;25.35;;
41952;SDS011;63613;28.200;112.870;2024-03-02T01:21:51;37.13;;;26.13;;
41952;SDS011;63613;28.200;112.870;2024-03-02T01:24:21;34.38;;;24.08;;
41952;SDS011;63613;28.200;112.870;2024-03-02T01:26:49;31.90;;;23.52;;
41952;SDS011;63613;28.200;112.870;2024-03-02T01:29:18;33.20;;;23.52;;
41952;SDS011;63613;28.200;112.870;2024-03-02T01:31:47;34.53;;;23.00;;
41952;SDS011;63613;28.200;112.870;2024-03-02T01:34:17;34.28;;;24.95;;
41952;SDS011;63613;28.200;112.870;2024-03-02T01:36:47;34.97;;;24.65;;
41952;SDS011;63613;28.200;112.870;2024-03-02T01:39:16;34.83;;;25.35;;
41952;SDS011;63613;28.200;112.870;2024-03-02T01:41:44;33.40;;;24.15;;
41952;SDS011;63613;28.200;112.870;2024-03-02T01:44:13;31.52;;;23.73;;
41952;SDS011;63613;28.200;112.870;2024-03-02T01:46:43;30.40;;;23.05;;
41952;SDS011;63613;28.200;112.870;2024-03-02T01:49:12;33.17;;;23.50;;
41952;SDS011;63613;28.200;112.870;2024-03-02T01:51:41;31.42;;;23.30;;
41952;SDS011;63613;28.200;112.870;2024-03-02T01:54:10;35.90;;;25.05;;
41952;SDS011;63613;28.200;112.870;2024-03-02T01:56:38;35.67;;;25.63;;
41952;SDS011;63613;28.200;112.870;2024-03-02T01:59:07;36.85;;;25.95;;
41952;SDS011;63613;28.200;112.870;2024-03-02T02:01:37;38.03;;;25.33;;
41952;SDS011;63613;28.200;112.870;2024-03-02T02:04:06;38.95;;;25.92;;
41952;SDS011;63613;28.200;112.870;2024-03-02T02:06:35;37.03;;;25.60;;
41952;SDS011;63613;28.200;112.870;2024-03-02T02:09:04;37.30;;;26.08;;
41952;SDS011;63613;28.200;112.870;2024-03-02T02:11:34;36.03;;;24.38;;
41952;SDS011;63613;28.200;112.870;2024-03-02T02:14:06;35.30;;;25.48;;
41952;SDS011;63613;28.200;112.870;2024-03-02T02:16:36;38.90;;;24.88;;
41952;SDS011;63613;28.200;112.870;2024-03-02T02:19:05;52.17;;;34.28;;
41952;SDS011;63613;28.200;112.870;2024-03-02T02:21:34;68.30;;;43.67;;
41952;SDS011;63613;28.200;112.870;2024-03-02T02:24:02;76.00;;;44.50;;
41952;SDS011;63613;28.200;112.870;2024-03-02T02:26:31;75.75;;;47.85;;
41952;SDS011;63613;28.200;112.870;2024-03-02T02:29:02;81.00;;;50.22;;
41952;SDS011;63613;28.200;112.870;2024-03-02T02:31:38;81.97;;;53.42;;
41952;SDS011;63613;28.200;112.870;2024-03-02T02:34:08;74.28;;;46.78;;
41952;SDS011;63613;28.200;112.870;2024-03-02T02:36:37;82.00;;;52.50;;
41952;SDS011;63613;28.200;112.870;2024-03-02T02:39:12;80.65;;;49.80;;
41952;SDS011;63613;28.200;112.870;2024-03-02T02:41:43;75.68;;;45.88;;
41952;SDS011;63613;28.200;112.870;2024-03-02T02:44:12;76.97;;;47.15;;
41952;SDS011;63613;28.200;112.870;2024-03-02T02:46:40;77.53;;;48.88;;
41952;SDS011;63613;28.200;112.870;2024-03-02T02:49:10;80.60;;;48.75;;
41952;SDS011;63613;28.200;112.870;2024-03-02T02:51:39;81.35;;;50.13;;
41952;SDS011;63613;28.200;112.870;2024-03-02T02:54:07;80.18;;;50.03;;
41952;SDS011;63613;28.200;112.870;2024-03-02T02:56:36;86.28;;;53.13;;
41952;SDS011;63613;28.200;112.870;2024-03-02T02:59:05;85.32;;;53.83;;
41952;SDS011;63613;28.200;112.870;2024-03-02T03:01:35;87.13;;;53.53;;
41952;SDS011;63613;28.200;112.870;2024-03-02T03:04:04;89.43;;;56.13;;
41952;SDS011;63613;28.200;112.870;2024-03-02T03:06:33;86.13;;;54.25;;
41952;SDS011;63613;28.200;112.870;2024-03-02T03:09:02;90.28;;;54.55;;
41952;SDS011;63613;28.200;112.870;2024-03-02T03:11:31;97.05;;;58.58;;
41952;SDS011;63613;28.200;112.870;2024-03-02T03:14:02;89.70;;;54.60;;
41952;SDS011;63613;28.200;112.870;2024-03-02T03:16:32;99.95;;;57.92;;
41952;SDS011;63613;28.200;112.870;2024-03-02T03:19:01;94.85;;;56.15;;
41952;SDS011;63613;28.200;112.870;2024-03-02T03:21:30;97.25;;;57.70;;
41952;SDS011;63613;28.200;112.870;2024-03-02T03:23:58;94.53;;;58.33;;
41952;SDS011;63613;28.200;112.870;2024-03-02T03:26:28;94.20;;;59.22;;
41952;SDS011;63613;28.200;112.870;2024-03-02T03:28:57;94.65;;;56.95;;
41952;SDS011;63613;28.200;112.870;2024-03-02T03:31:25;94.05;;;57.17;;
41952;SDS011;63613;28.200;112.870;2024-03-02T03:33:54;87.78;;;56.90;;
41952;SDS011;63613;28.200;112.870;2024-03-02T03:36:23;89.65;;;55.38;;
41952;SDS011;63613;28.200;112.870;2024-03-02T03:38:53;88.68;;;54.42;;
41952;SDS011;63613;28.200;112.870;2024-03-02T03:41:22;85.20;;;53.95;;
41952;SDS011;63613;28.200;112.870;2024-03-02T03:43:50;89.22;;;56.25;;
41952;SDS011;63613;28.200;112.870;2024-03-02T03:46:19;85.72;;;53.10;;
41952;SDS011;63613;28.200;112.870;2024-03-02T03:48:48;87.65;;;55.10;;
41952;SDS011;63613;28.200;112.870;2024-03-02T03:51:17;88.93;;;54.65;;
41952;SDS011;63613;28.200;112.870;2024-03-02T03:53:46;82.07;;;50.50;;
41952;SDS011;63613;28.200;112.870;2024-03-02T03:56:15;86.22;;;51.72;;
41952;SDS011;63613;28.200;112.870;2024-03-02T03:58:44;82.97;;;52.22;;
41952;SDS011;63613;28.200;112.870;2024-03-02T04:01:13;88.72;;;52.70;;
41952;SDS011;63613;28.200;112.870;2024-03-02T04:03:43;86.85;;;51.92;;
41952;SDS011;63613;28.200;112.870;2024-03-02T04:06:12;81.72;;;50.60;;
41952;SDS011;63613;28.200;112.870;2024-03-02T04:08:42;104.28;;;59.38;;
41952;SDS011;63613;28.200;112.870;2024-03-02T04:11:11;95.10;;;56.42;;
41952;SDS011;63613;28.200;112.870;2024-03-02T04:13:40;96.53;;;55.17;;
41952;SDS011;63613;28.200;112.870;2024-03-02T04:16:10;106.90;;;60.83;;
41952;SDS011;63613;28.200;112.870;2024-03-02T04:18:39;99.65;;;58.08;;
41952;SDS011;63613;28.200;112.870;2024-03-02T04:21:07;105.65;;;57.40;;
41952;SDS011;63613;28.200;112.870;2024-03-02T04:23:41;106.80;;;59.15;;
41952;SDS011;63613;28.200;112.870;2024-03-02T04:26:11;110.07;;;56.92;;
41952;SDS011;63613;28.200;112.870;2024-03-02T04:28:41;99.75;;;57.30;;
41952;SDS011;63613;28.200;112.870;2024-03-02T04:31:09;103.35;;;57.30;;
41952;SDS011;63613;28.200;112.870;2024-03-02T04:33:38;99.18;;;54.92;;
41952;SDS011;63613;28.200;112.870;2024-03-02T04:36:07;89.57;;;54.53;;
41952;SDS011;63613;28.200;112.870;2024-03-02T04:38:38;86.38;;;51.33;;
41952;SDS011;63613;28.200;112.870;2024-03-02T04:41:07;86.22;;;50.20;;
41952;SDS011;63613;28.200;112.870;2024-03-02T04:43:36;83.43;;;50.67;;
41952;SDS011;63613;28.200;112.870;2024-03-02T04:46:05;87.93;;;53.17;;
41952;SDS011;63613;28.200;112.870;2024-03-02T04:48:34;83.35;;;50.88;;
41952;SDS011;63613;28.200;112.870;2024-03-02T04:51:03;82.18;;;50.63;;
41952;SDS011;63613;28.200;112.870;2024-03-02T04:53:32;78.45;;;49.15;;
41952;SDS011;63613;28.200;112.870;2024-03-02T04:56:01;84.22;;;49.28;;
41952;SDS011;63613;28.200;112.870;2024-03-02T04:58:49;77.93;;;48.92;;
41952;SDS011;63613;28.200;112.870;2024-03-02T05:01:19;85.13;;;48.63;;
41952;SDS011;63613;28.200;112.870;2024-03-02T05:03:48;73.95;;;45.92;;
41952;SDS011;63613;28.200;112.870;2024-03-02T05:06:17;77.47;;;49.58;;
41952;SDS011;63613;28.200;112.870;2024-03-02T05:08:46;72.30;;;46.05;;
41952;SDS011;63613;28.200;112.870;2024-03-02T05:11:15;73.72;;;44.97;;
41952;SDS011;63613;28.200;112.870;2024-03-02T05:14:03;73.97;;;44.65;;
41952;SDS011;63613;28.200;112.870;2024-03-02T05:16:35;68.78;;;44.40;;
41952;SDS011;63613;28.200;112.870;2024-03-02T05:19:05;70.68;;;44.13;;
41952;SDS011;63613;28.200;112.870;2024-03-02T05:21:34;71.03;;;42.40;;
41952;SDS011;63613;28.200;112.870;2024-03-02T05:24:02;71.30;;;43.58;;
41952;SDS011;63613;28.200;112.870;2024-03-02T05:26:33;73.15;;;45.10;;
41952;SDS011;63613;28.200;112.870;2024-03-02T05:29:02;70.05;;;43.15;;
41952;SDS011;63613;28.200;112.870;2024-03-02T05:31:30;70.05;;;44.20;;
41952;SDS011;63613;28.200;112.870;2024-03-02T05:33:59;69.55;;;44.60;;
41952;SDS011;63613;28.200;112.870;2024-03-02T05:36:29;72.53;;;43.83;;
41952;SDS011;63613;28.200;112.870;2024-03-02T05:38:58;71.85;;;45.15;;
41952;SDS011;63613;28.200;112.870;2024-03-02T05:41:27;70.78;;;44.58;;
41952;SDS011;63613;28.200;112.870;2024-03-02T05:43:56;69.95;;;44.20;;
41952;SDS011;63613;28.200;112.870;2024-03-02T05:46:25;72.05;;;43.15;;
41952;SDS011;63613;28.200;112.870;2024-03-02T05:48:55;66.15;;;43.30;;
41952;SDS011;63613;28.200;112.870;2024-03-02T05:51:24;68.57;;;44.78;;
41952;SDS011;63613;28.200;112.870;2024-03-02T05:53:53;70.20;;;42.80;;
41952;SDS011;63613;28.200;112.870;2024-03-02T05:56:21;69.75;;;42.25;;
41952;SDS011;63613;28.200;112.870;2024-03-02T05:58:50;77.28;;;45.05;;
41952;SDS011;63613;28.200;112.870;2024-03-02T06:01:40;67.32;;;41.47;;
41952;SDS011;63613;28.200;112.870;2024-03-02T06:04:10;71.20;;;45.25;;
41952;SDS011;63613;28.200;112.870;2024-03-02T06:06:40;71.78;;;43.88;;
41952;SDS011;63613;28.200;112.870;2024-03-02T06:09:09;71.13;;;44.25;;
41952;SDS011;63613;28.200;112.870;2024-03-02T06:11:39;71.53;;;45.72;;
41952;SDS011;63613;28.200;112.870;2024-03-02T06:14:09;76.15;;;46.97;;
41952;SDS011;63613;28.200;112.870;2024-03-02T06:16:38;70.50;;;43.30;;
41952;SDS011;63613;28.200;112.870;2024-03-02T06:19:06;72.00;;;43.70;;
41952;SDS011;63613;28.200;112.870;2024-03-02T06:21:35;72.78;;;43.85;;
41952;SDS011;63613;28.200;112.870;2024-03-02T06:24:04;74.82;;;44.53;;
41952;SDS011;63613;28.200;112.870;2024-03-02T06:26:35;69.25;;;42.38;;
41952;SDS011;63613;28.200;112.870;2024-03-02T06:29:03;72.57;;;44.20;;
41952;SDS011;63613;28.200;112.870;2024-03-02T06:31:33;74.22;;;45.03;;
41952;SDS011;63613;28.200;112.870;2024-03-02T06:34:02;68.13;;;43.03;;
41952;SDS011;63613;28.200;112.870;2024-03-02T06:36:30;68.38;;;42.35;;
41952;SDS011;63613;28.200;112.870;2024-03-02T06:39:00;67.97;;;43.30;;
41952;SDS011;63613;28.200;112.870;2024-03-02T06:41:28;67.03;;;42.38;;
41952;SDS011;63613;28.200;112.870;2024-03-02T06:43:57;70.38;;;43.10;;
41952;SDS011;63613;28.200;112.870;2024-03-02T06:46:26;72.18;;;44.75;;
41952;SDS011;63613;28.200;112.870;2024-03-02T06:48:55;68.95;;;42.75;;
41952;SDS011;63613;28.200;112.870;2024-03-02T06:51:25;72.10;;;44.33;;
41952;SDS011;63613;28.200;112.870;2024-03-02T06:53:53;65.95;;;42.78;;
41952;SDS011;63613;28.200;112.870;2024-03-02T06:56:22;68.05;;;41.88;;
41952;SDS011;63613;28.200;112.870;2024-03-02T06:58:51;65.32;;;40.63;;
41952;SDS011;63613;28.200;112.870;2024-03-02T07:01:20;60.60;;;39.45;;
41952;SDS011;63613;28.200;112.870;2024-03-02T07:03:50;64.43;;;40.22;;
41952;SDS011;63613;28.200;112.870;2024-03-02T07:06:19;68.05;;;41.88;;
41952;SDS011;63613;28.200;112.870;2024-03-02T07:08:48;64.72;;;38.63;;
41952;SDS011;63613;28.200;112.870;2024-03-02T07:11:16;65.45;;;41.88;;
41952;SDS011;63613;28.200;112.870;2024-03-02T07:13:46;61.15;;;40.22;;
41952;SDS011;63613;28.200;112.870;2024-03-02T07:16:16;62.92;;;38.97;;
41952;SDS011;63613;28.200;112.870;2024-03-02T07:18:54;64.22;;;40.38;;
41952;SDS011;63613;28.200;112.870;2024-03-02T07:21:23;60.92;;;40.75;;
41952;SDS011;63613;28.200;112.870;2024-03-02T07:23:52;58.83;;;38.20;;
41952;SDS011;63613;28.200;112.870;2024-03-02T07:26:22;57.65;;;36.67;;
41952;SDS011;63613;28.200;112.870;2024-03-02T07:28:51;63.80;;;38.78;;
41952;SDS011;63613;28.200;112.870;2024-03-02T07:31:20;58.47;;;35.58;;
41952;SDS011;63613;28.200;112.870;2024-03-02T07:33:49;55.83;;;37.22;;
41952;SDS011;63613;28.200;112.870;2024-03-02T07:36:17;62.28;;;38.03;;
41952;SDS011;63613;28.200;112.870;2024-03-02T07:38:48;57.75;;;37.78;;
41952;SDS011;63613;28.200;112.870;2024-03-02T07:41:17;57.67;;;38.00;;
41952;SDS011;63613;28.200;112.870;2024-03-02T07:43:45;60.58;;;37.00;;
41952;SDS011;63613;28.200;112.870;2024-03-02T07:46:14;58.50;;;37.75;;
41952;SDS011;63613;28.200;112.870;2024-03-02T07:48:43;65.13;;;38.45;;
41952;SDS011;63613;28.200;112.870;2024-03-02T07:51:14;60.63;;;37.20;;
41952;SDS011;63613;28.200;112.870;2024-03-02T07:53:45;64.70;;;40.38;;
41952;SDS011;63613;28.200;112.870;2024-03-02T07:56:13;66.90;;;39.90;;
41952;SDS011;63613;28.200;112.870;2024-03-02T07:58:49;66.35;;;40.28;;
41952;SDS011;63613;28.200;112.870;2024-03-02T08:01:18;62.90;;;37.95;;
41952;SDS011;63613;28.200;112.870;2024-03-02T08:03:47;64.72;;;37.60;;
41952;SDS011;63613;28.200;112.870;2024-03-02T08:06:17;62.25;;;37.97;;
41952;SDS011;63613;28.200;112.870;2024-03-02T08:08:47;67.80;;;39.67;;
41952;SDS011;63613;28.200;112.870;2024-03-02T08:11:16;64.93;;;40.47;;
41952;SDS011;63613;28.200;112.870;2024-03-02T08:13:47;64.47;;;39.00;;
41952;SDS011;63613;28.200;112.870;2024-03-02T08:16:16;63.92;;;39.88;;
41952;SDS011;63613;28.200;112.870;2024-03-02T08:18:47;63.42;;;39.88;;
41952;SDS011;63613;28.200;112.870;2024-03-02T08:21:16;65.18;;;41.30;;
41952;SDS011;63613;28.200;112.870;2024-03-02T08:23:45;65.15;;;39.15;;
41952;SDS011;63613;28.200;112.870;2024-03-02T08:26:15;60.63;;;38.72;;
41952;SDS011;63613;28.200;112.870;2024-03-02T08:28:44;55.35;;;36.88;;
41952;SDS011;63613;28.200;112.870;2024-03-02T08:31:12;59.83;;;40.15;;
41952;SDS011;63613;28.200;112.870;2024-03-02T08:33:41;65.93;;;39.47;;
41952;SDS011;63613;28.200;112.870;2024-03-02T08:36:10;62.17;;;39.13;;
41952;SDS011;63613;28.200;112.870;2024-03-02T08:38:40;60.10;;;38.78;;
41952;SDS011;63613;28.200;112.870;2024-03-02T08:41:10;59.03;;;37.95;;
41952;SDS011;63613;28.200;112.870;2024-03-02T08:43:40;57.72;;;38.35;;
41952;SDS011;63613;28.200;112.870;2024-03-02T08:46:09;63.47;;;38.95;;
41952;SDS011;63613;28.200;112.870;2024-03-02T08:48:38;59.88;;;37.33;;
41952;SDS011;63613;28.200;112.870;2024-03-02T08:51:08;59.80;;;37.17;;
41952;SDS011;63613;28.200;112.870;2024-03-02T08:53:37;57.78;;;36.95;;
41952;SDS011;63613;28.200;112.870;2024-03-02T08:56:06;58.00;;;35.78;;
41952;SDS011;63613;28.200;112.870;2024-03-02T08:58:35;54.00;;;33.35;;
41952;SDS011;63613;28.200;112.870;2024-03-02T09:01:03;54.38;;;35.15;;
41952;SDS011;63613;28.200;112.870;2024-03-02T09:03:35;58.17;;;34.58;;
41952;SDS011;63613;28.200;112.870;2024-03-02T09:06:05;57.05;;;35.80;;
41952;SDS011;63613;28.200;112.870;2024-03-02T09:08:34;54.90;;;33.28;;
41952;SDS011;63613;28.200;112.870;2024-03-02T09:11:05;56.45;;;32.35;;
41952;SDS011;63613;28.200;112.870;2024-03-02T09:13:35;51.67;;;31.95;;
41952;SDS011;63613;28.200;112.870;2024-03-02T09:16:06;57.97;;;35.05;;
41952;SDS011;63613;28.200;112.870;2024-03-02T09:18:44;50.10;;;31.02;;
41952;SDS011;63613;28.200;112.870;2024-03-02T09:21:13;47.38;;;29.40;;
41952;SDS011;63613;28.200;112.870;2024-03-02T09:23:43;42.25;;;29.52;;
41952;SDS011;63613;28.200;112.870;2024-03-02T09:26:14;40.05;;;25.48;;
41952;SDS011;63613;28.200;112.870;2024-03-02T09:28:43;35.40;;;24.45;;
41952;SDS011;63613;28.200;112.870;2024-03-02T09:31:12;36.92;;;25.90;;
41952;SDS011;63613;28.200;112.870;2024-03-02T09:33:41;37.45;;;24.08;;
41952;SDS011;63613;28.200;112.870;2024-03-02T09:36:19;31.50;;;22.65;;
41952;SDS011;63613;28.200;112.870;2024-03-02T09:38:48;35.30;;;24.02;;
41952;SDS011;63613;28.200;112.870;2024-03-02T09:41:17;31.52;;;22.35;;
41952;SDS011;63613;28.200;112.870;2024-03-02T09:43:46;30.58;;;21.65;;
41952;SDS011;63613;28.200;112.870;2024-03-02T09:46:18;29.95;;;20.80;;
41952;SDS011;63613;28.200;112.870;2024-03-02T09:48:48;30.00;;;20.88;;
41952;SDS011;63613;28.200;112.870;2024-03-02T09:51:17;31.02;;;20.83;;
41952;SDS011;63613;28.200;112.870;2024-03-02T09:53:49;31.27;;;21.23;;
41952;SDS011;63613;28.200;112.870;2024-03-02T09:56:21;30.77;;;20.45;;
41952;SDS011;63613;28.200;112.870;2024-03-02T09:58:50;25.35;;;19.33;;
41952;SDS011;63613;28.200;112.870;2024-03-02T10:01:19;26.65;;;19.95;;
41952;SDS011;63613;28.200;112.870;2024-03-02T10:03:48;25.25;;;17.70;;
41952;SDS011;63613;28.200;112.870;2024-03-02T10:06:21;24.52;;;18.23;;
41952;SDS011;63613;28.200;112.870;2024-03-02T10:08:51;24.17;;;18.35;;
41952;SDS011;63613;28.200;112.870;2024-03-02T10:11:29;25.60;;;18.45;;
41952;SDS011;63613;28.200;112.870;2024-03-02T10:14:08;24.77;;;17.50;;
41952;SDS011;63613;28.200;112.870;2024-03-02T10:16:39;25.83;;;17.45;;
41952;SDS011;63613;28.200;112.870;2024-03-02T10:19:18;25.52;;;18.05;;
41952;SDS011;63613;28.200;112.870;2024-03-02T10:21:50;23.77;;;17.50;;
41952;SDS011;63613;28.200;112.870;2024-03-02T10:24:22;22.33;;;16.92;;
41952;SDS011;63613;28.200;112.870;2024-03-02T10:26:52;22.05;;;16.38;;
41952;SDS011;63613;28.200;112.870;2024-03-02T10:29:22;21.33;;;15.82;;
41952;SDS011;63613;28.200;112.870;2024-03-02T10:31:54;20.08;;;14.80;;
41952;SDS011;63613;28.200;112.870;2024-03-02T10:34:25;19.50;;;14.52;;
41952;SDS011;63613;28.200;112.870;2024-03-02T10:36:54;19.73;;;14.50;;
41952;SDS011;63613;28.200;112.870;2024-03-02T10:39:23;16.45;;;13.75;;
41952;SDS011;63613;28.200;112.870;2024-03-02T10:41:52;15.30;;;12.68;;
41952;SDS011;63613;28.200;112.870;2024-03-02T10:44:22;17.50;;;13.80;;
41952;SDS011;63613;28.200;112.870;2024-03-02T10:46:52;18.00;;;13.55;;
41952;SDS011;63613;28.200;112.870;2024-03-02T10:49:24;17.40;;;12.90;;
41952;SDS011;63613;28.200;112.870;2024-03-02T10:51:56;17.02;;;12.25;;
41952;SDS011;63613;28.200;112.870;2024-03-02T10:54:25;17.98;;;12.40;;
41952;SDS011;63613;28.200;112.870;2024-03-02T10:57:03;15.85;;;12.25;;
41952;SDS011;63613;28.200;112.870;2024-03-02T10:59:36;15.63;;;11.90;;
41952;SDS011;63613;28.200;112.870;2024-03-02T11:02:14;19.08;;;12.25;;
41952;SDS011;63613;28.200;112.870;2024-03-02T11:04:44;15.05;;;11.70;;
41952;SDS011;63613;28.200;112.870;2024-03-02T11:07:17;16.13;;;11.68;;
41952;SDS011;63613;28.200;112.870;2024-03-02T11:09:57;15.85;;;12.18;;
41952;SDS011;63613;28.200;112.870;2024-03-02T11:12:44;14.55;;;10.32;;
41952;SDS011;63613;28.200;112.870;2024-03-02T11:15:26;16.17;;;11.18;;
41952;SDS011;63613;28.200;112.870;2024-03-02T11:17:58;13.57;;;11.15;;
41952;SDS011;63613;28.200;112.870;2024-03-02T11:20:27;13.30;;;11.02;;
41952;SDS011;63613;28.200;112.870;2024-03-02T11:22:56;14.30;;;10.50;;
41952;SDS011;63613;28.200;112.870;2024-03-02T11:25:31;16.38;;;11.68;;
41952;SDS011;63613;28.200;112.870;2024-03-02T11:28:01;14.43;;;10.90;;
41952;SDS011;63613;28.200;112.870;2024-03-02T11:30:48;15.13;;;10.18;;
41952;SDS011;63613;28.200;112.870;2024-03-02T11:33:22;13.43;;;10.52;;
41952;SDS011;63613;28.200;112.870;2024-03-02T11:35:53;15.27;;;11.02;;
41952;SDS011;63613;28.200;112.870;2024-03-02T11:38:27;14.55;;;10.23;;
41952;SDS011;63613;28.200;112.870;2024-03-02T11:40:58;13.75;;;10.48;;
41952;SDS011;63613;28.200;112.870;2024-03-02T11:43:29;18.23;;;14.38;;
41952;SDS011;63613;28.200;112.870;2024-03-02T11:46:00;18.65;;;14.00;;
41952;SDS011;63613;28.200;112.870;2024-03-02T11:48:35;20.88;;;14.05;;
41952;SDS011;63613;28.200;112.870;2024-03-02T11:51:05;18.05;;;13.85;;
41952;SDS011;63613;28.200;112.870;2024-03-02T11:53:34;18.95;;;12.57;;
41952;SDS011;63613;28.200;112.870;2024-03-02T11:56:06;17.80;;;13.30;;
41952;SDS011;63613;28.200;112.870;2024-03-02T11:58:39;17.20;;;12.73;;
41952;SDS011;63613;28.200;112.870;2024-03-02T12:01:09;17.27;;;12.88;;
41952;SDS011;63613;28.200;112.870;2024-03-02T12:03:39;16.60;;;12.75;;
41952;SDS011;63613;28.200;112.870;2024-03-02T12:06:08;16.65;;;13.35;;
41952;SDS011;63613;28.200;112.870;2024-03-02T12:08:37;18.05;;;13.15;;
41952;SDS011;63613;28.200;112.870;2024-03-02T12:11:08;17.35;;;12.60;;
41952;SDS011;63613;28.200;112.870;2024-03-02T12:13:40;19.23;;;12.80;;
41952;SDS011;63613;28.200;112.870;2024-03-02T12:16:24;16.58;;;12.82;;
41952;SDS011;63613;28.200;112.870;2024-03-02T12:18:54;18.00;;;13.43;;
41952;SDS011;63613;28.200;112.870;2024-03-02T12:21:23;19.95;;;12.70;;
41952;SDS011;63613;28.200;112.870;2024-03-02T12:23:52;16.67;;;12.45;;
41952;SDS011;63613;28.200;112.870;2024-03-02T12:26:21;18.25;;;13.68;;
41952;SDS011;63613;28.200;112.870;2024-03-02T12:28:50;18.63;;;13.10;;
41952;SDS011;63613;28.200;112.870;2024-03-02T12:31:20;18.98;;;12.73;;
41952;SDS011;63613;28.200;112.870;2024-03-02T12:33:49;18.92;;;12.52;;
41952;SDS011;63613;28.200;112.870;2024-03-02T12:36:18;17.95;;;12.05;;
41952;SDS011;63613;28.200;112.870;2024-03-02T12:38:47;19.48;;;13.40;;
41952;SDS011;63613;28.200;112.870;2024-03-02T12:41:16;19.40;;;12.70;;
41952;SDS011;63613;28.200;112.870;2024-03-02T12:43:46;17.05;;;12.00;;
41952;SDS011;63613;28.200;112.870;2024-03-02T12:46:14;18.88;;;12.45;;
41952;SDS011;63613;28.200;112.870;2024-03-02T12:48:43;20.33;;;13.02;;
41952;SDS011;63613;28.200;112.870;2024-03-02T12:51:12;17.67;;;12.43;;
41952;SDS011;63613;28.200;112.870;2024-03-02T12:53:41;20.08;;;13.40;;
41952;SDS011;63613;28.200;112.870;2024-03-02T12:56:11;17.20;;;12.38;;
41952;SDS011;63613;28.200;112.870;2024-03-02T12:58:40;18.08;;;12.95;;
41952;SDS011;63613;28.200;112.870;2024-03-02T13:01:09;17.25;;;12.23;;
41952;SDS011;63613;28.200;112.870;2024-03-02T13:03:40;17.52;;;12.48;;
41952;SDS011;63613;28.200;112.870;2024-03-02T13:06:09;17.95;;;12.15;;
41952;SDS011;63613;28.200;112.870;2024-03-02T13:08:39;18.55;;;12.90;;
41952;SDS011;63613;28.200;112.870;2024-03-02T13:11:08;19.63;;;13.75;;
41952;SDS011;63613;28.200;112.870;2024-03-02T13:13:40;21.40;;;12.90;;
41952;SDS011;63613;28.200;112.870;2024-03-02T13:16:09;18.35;;;12.82;;
41952;SDS011;63613;28.200;112.870;2024-03-02T13:18:39;15.70;;;12.13;;
41952;SDS011;63613;28.200;112.870;2024-03-02T13:21:08;19.58;;;13.15;;
41952;SDS011;63613;28.200;112.870;2024-03-02T13:23:37;17.50;;;11.95;;
41952;SDS011;63613;28.200;112.870;2024-03-02T13:26:06;19.35;;;12.45;;
41952;SDS011;63613;28.200;112.870;2024-03-02T13:28:36;17.02;;;12.77;;
41952;SDS011;63613;28.200;112.870;2024-03-02T13:31:06;18.35;;;12.32;;
41952;SDS011;63613;28.200;112.870;2024-03-02T13:33:34;18.10;;;12.32;;
41952;SDS011;63613;28.200;112.870;2024-03-02T13:36:03;17.65;;;12.00;;
41952;SDS011;63613;28.200;112.870;2024-03-02T13:38:32;17.45;;;12.55;;
41952;SDS011;63613;28.200;112.870;2024-03-02T13:41:02;17.98;;;12.43;;
41952;SDS011;63613;28.200;112.870;2024-03-02T13:43:32;18.10;;;13.30;;
41952;SDS011;63613;28.200;112.870;2024-03-02T13:46:03;18.75;;;11.50;;
41952;SDS011;63613;28.200;112.870;2024-03-02T13:48:32;17.65;;;12.05;;
41952;SDS011;63613;28.200;112.870;2024-03-02T13:51:02;17.27;;;11.68;;
41952;SDS011;63613;28.200;112.870;2024-03-02T13:53:31;17.42;;;12.52;;
41952;SDS011;63613;28.200;112.870;2024-03-02T13:56:02;18.60;;;12.20;;
41952;SDS011;63613;28.200;112.870;2024-03-02T13:58:31;17.10;;;11.43;;
41952;SDS011;63613;28.200;112.870;2024-03-02T14:01:01;15.73;;;11.48;;
41952;SDS011;63613;28.200;112.870;2024-03-02T14:03:30;18.27;;;12.23;;
41952;SDS011;63613;28.200;112.870;2024-03-02T14:06:00;17.70;;;11.77;;
41952;SDS011;63613;28.200;112.870;2024-03-02T14:08:29;16.83;;;11.63;;
41952;SDS011;63613;28.200;112.870;2024-03-02T14:11:00;17.83;;;12.07;;
41952;SDS011;63613;28.200;112.870;2024-03-02T14:13:28;17.80;;;12.70;;